Bay Area Logo

San Jose, CA Condo Real Estate Listings

585 Total Real Estate Listings * Click on table heading to sort
Date Posted Property Type Style Address Price Living Area Lot Size Price/Sq Ft.
2017-08-19 Condo 891 Beaver Creek Way San Jose, CA 95133 $629,000 1,342 sq. ft. 1,742 sq. ft. $469
2017-08-19 Condo 1860 Tradan Drive San Jose, CA 95132 $499,000 988 sq. ft. 1,742 sq. ft. $505
2017-08-19 Condo Contemporary 174 Monte Verano Court San Jose, CA 95116 $309,000 597 sq. ft. 1,742 sq. ft. $518
2017-08-19 Condo Traditional 5301 Cribari Heights San Jose, CA 95135 $414,995 1,223 sq. ft. 1,742 sq. ft. $339
2017-08-18 Condo 313 Vista Roma Way San Jose, CA 95136 $730,000 1,674 sq. ft. 3,049 sq. ft. $436
2017-08-18 Condo Contemporary 2593 Yerba Bank Court San Jose, CA 95121 $630,000 1,065 sq. ft. 871 sq. ft. $592
2017-08-18 Condo Contemporary 2843 Lavender Terrace San Jose, CA 95111 $625,000 1,405 sq. ft. 1,307 sq. ft. $445
2017-08-18 Condo Contemporary 1060 3rd Street San Jose, CA 95112 $395,000 667 sq. ft. 871 sq. ft. $592
2017-08-18 Condo Contemporary 869 Gilchrist Walk San Jose, CA 95133 $399,000 798 sq. ft. 1,307 sq. ft. $500
2017-08-18 Condo 92 Saddle Brook Drive San Jose, CA 95136 $459,999 816 sq. ft. 871 sq. ft. $564
2017-08-18 Condo 710 Cassaday Court San Jose, CA 95136 $480,000 912 sq. ft. 436 sq. ft. $526
2017-08-18 Condo 38 Almaden Boulevard San Jose, CA 95110 $549,000 655 sq. ft. 0 sq. ft. $838
2017-08-18 Condo 2637 Villa Cortona Way San Jose, CA 95125 $759,000 1,622 sq. ft. 871 sq. ft. $468
2017-08-18 Condo Contemporary 259 Capitol Avenue San Jose, CA 95127 $305,000 777 sq. ft. $393
2017-08-18 Condo 2925 Florence Avenue San Jose, CA 95127 $447,000 960 sq. ft. 871 sq. ft. $466
2017-08-18 Condo 304 Heredia Court San Jose, CA 95116 $399,000 1,000 sq. ft. 871 sq. ft. $399
2017-08-18 Condo 292 Tradewinds Drive San Jose, CA 95123 $380,000 722 sq. ft. 2,614 sq. ft. $526
2017-08-18 Condo 312 Casselino Drive San Jose, CA 95136 $1,088,000 2,522 sq. ft. 2,614 sq. ft. $431
2017-08-17 Condo 1375 Lick Avenue San Jose, CA 95110 $499,000 820 sq. ft. 1,307 sq. ft. $609
2017-08-17 Condo Contemporary 2453 Jubilee Lane San Jose, CA 95131 $569,999 966 sq. ft. 1,742 sq. ft. $590
2017-08-17 Condo 739 Modern Ice Drive San Jose, CA 95112 $678,888 1,288 sq. ft. 1,742 sq. ft. $527
2017-08-17 Condo Contemporary 2303 Mclaughlin San Jose, CA 95122 $499,500 912 sq. ft. 871 sq. ft. $548
2017-08-17 Condo 411 Park Avenue San Jose, CA 95110 $429,000 816 sq. ft. $526
2017-08-17 Condo 116 Kenbrook Circle San Jose, CA 95111 $499,000 1,164 sq. ft. 1,307 sq. ft. $429
2017-08-17 Condo 1060 3rd Street San Jose, CA 95112 $385,000 667 sq. ft. 871 sq. ft. $577
2017-08-17 Condo 533 Cinnamon Drive San Jose, CA 95111 $375,000 801 sq. ft. 1,742 sq. ft. $468
2017-08-17 Condo 88 Bush Street San Jose, CA 95126 $900,000 1,444 sq. ft. 436 sq. ft. $623
2017-08-17 Condo 125 Patterson Street San Jose, CA 95112 $485,000 894 sq. ft. 871 sq. ft. $543
2017-08-17 Condo 1 Julian Street San Jose, CA 95112 $775,000 1,348 sq. ft. 1,307 sq. ft. $575
2017-08-17 Condo 1417 Allegado Alley San Jose, CA 95128 $599,000 1,393 sq. ft. 1,742 sq. ft. $430
2017-08-17 Condo 685 Modern Ice Drive San Jose, CA 95112 $684,900 1,150 sq. ft. 1,307 sq. ft. $596
2017-08-16 Condo 1017 Foxchase Drive San Jose, CA 95123 $519,000 1,021 sq. ft. 871 sq. ft. $508
2017-08-16 Condo 1908 Messina Drive San Jose, CA 95132 $570,000 1,240 sq. ft. 1,307 sq. ft. $460
2017-08-16 Condo 144 3rd Street San Jose, CA 95112 $729,000 1,488 sq. ft. 871 sq. ft. $490
2017-08-16 Condo 1550 Technology Drive San Jose, CA 95110 $499,000 831 sq. ft. 871 sq. ft. $600
2017-08-16 Condo 914 La Barbera San Jose, CA 95126 $599,000 987 sq. ft. 871 sq. ft. $607
2017-08-16 Condo 1034 Whitebick Drive San Jose, CA 95129 $1,299,000 1,532 sq. ft. 1,742 sq. ft. $848
2017-08-15 Condo 3592 Payne Avenue San Jose, CA 95117 $440,000 910 sq. ft. 871 sq. ft. $484
2017-08-15 Condo 690 Teatree Court San Jose, CA 95128 $548,000 922 sq. ft. 1,742 sq. ft. $594
2017-08-15 Condo Contemporary 850 Sakura Drive San Jose, CA 95112 $750,000 1,626 sq. ft. 1,742 sq. ft. $461
2017-08-15 Condo 5974 Lake Almanor Drive San Jose, CA 95123 $549,000 1,024 sq. ft. 436 sq. ft. $536
2017-08-15 Condo 1766 Piedmont Road San Jose, CA 95132 $599,900 1,176 sq. ft. 871 sq. ft. $510
2017-08-15 Condo Contemporary 399 Bundy Avenue San Jose, CA 95117 $849,900 1,574 sq. ft. 1,742 sq. ft. $540
2017-08-14 Condo 4743 Canyon River Court San Jose, CA 95136 $649,000 1,496 sq. ft. 1,742 sq. ft. $434
2017-08-14 Condo 5867 Lake Crowley Place San Jose, CA 95123 $600,000 1,002 sq. ft. 1,307 sq. ft. $599
2017-08-13 Condo 410 Capricorn Court San Jose, CA 95111 $425,000 1,197 sq. ft. 1,307 sq. ft. $355
2017-08-12 Condo Contemporary 3440 Wine Cork Way San Jose, CA 95124 $589,900 960 sq. ft. 871 sq. ft. $614
2017-08-12 Condo 121 Rancho Drive San Jose, CA 95111 $366,000 822 sq. ft. 1,742 sq. ft. $445
2017-08-11 Condo 1253 Coyote Creek Place San Jose, CA 95116 $439,000 849 sq. ft. 1,307 sq. ft. $517
2017-08-11 Condo 3366 Napoli Place San Jose, CA 95135 $850,000 1,482 sq. ft. 2,178 sq. ft. $574
2017-08-11 Condo 2126 Rio Barranca Court San Jose, CA 95116 $479,900 1,180 sq. ft. 871 sq. ft. $407
2017-08-11 Condo 5334 Monterey Highway San Jose, CA 95111 $395,000 950 sq. ft. $416
2017-08-11 Condo Contemporary 72 Rancho Dr San Jose, CA 95111 $375,000 871 sq. ft.
2017-08-11 Condo 1268 Lick Avenue San Jose, CA 95110 $689,800 1,305 sq. ft. 1,742 sq. ft. $529
2017-08-11 Condo 1375 Lick Avenue San Jose, CA 95110 $849,950 1,233 sq. ft. 1,307 sq. ft. $689
2017-08-10 Condo 1319 Lyonsville Lane San Jose, CA 95118 $700,000 1,102 sq. ft. 2,178 sq. ft. $635
2017-08-10 Condo Contemporary 333 Santana Row San Jose, CA 95128 $1,025,000 1,354 sq. ft. 436 sq. ft. $757
2017-08-10 Condo 7216 Via Amparo San Jose, CA 95135 $549,000 1,386 sq. ft. 1,742 sq. ft. $396
2017-08-10 Condo 4556 Cimarron River Court San Jose, CA 95136 $662,000 1,760 sq. ft. 1,742 sq. ft. $376
2017-08-10 Condo 5180 Meridian Avenue San Jose, CA 95118 $829,000 1,748 sq. ft. 1,742 sq. ft. $474
2017-08-10 Condo 1550 Technology Drive San Jose, CA 95110 $500,000 875 sq. ft. 871 sq. ft. $571
2017-08-10 Condo Contemporary 1414 Mcquesten Drive San Jose, CA 95122 $399,000 1,150 sq. ft. 436 sq. ft. $347
2017-08-10 Condo 477 Carpentier Way San Jose, CA 95111 $459,888 941 sq. ft. 871 sq. ft. $489
2017-08-10 Condo 2683 Villa Cortona Way San Jose, CA 95125 $788,000 1,888 sq. ft. 1,307 sq. ft. $417
2017-08-10 Condo 88 San Fernando Street San Jose, CA 95113 $1,088,890 1,981 sq. ft. 436 sq. ft. $550
2017-08-10 Condo 5231 Macaw Court San Jose, CA 95123 $529,000 1,052 sq. ft. 1,742 sq. ft. $503
2017-08-10 Condo 7259 Via Vico San Jose, CA 95129 $1,088,000 1,305 sq. ft. 1,742 sq. ft. $834
2017-08-10 Condo 5561 Russo Drive San Jose, CA 95118 $568,000 1,104 sq. ft. 1,742 sq. ft. $514
2017-08-09 Condo 3055 Teal Ridge Court San Jose, CA 95136 $474,000 1,012 sq. ft. 871 sq. ft. $468
2017-08-09 Condo 2988 Grassina Street San Jose, CA 95136 $489,000 888 sq. ft. 2,178 sq. ft. $551
2017-08-09 Condo 198 Banff Springs Way San Jose, CA 95139 $629,900 1,820 sq. ft. 2,178 sq. ft. $346
2017-08-09 Condo 691 Capitol Avenue San Jose, CA 95133 $749,000 1,522 sq. ft. 436 sq. ft. $492
2017-08-09 Condo Ranch 1137 Holly Oak Circle San Jose, CA 95120 $879,900 1,824 sq. ft. 3,049 sq. ft. $482
2017-08-09 Condo 892 La Barbera Drive San Jose, CA 95126 $599,800 987 sq. ft. 871 sq. ft. $608
2017-08-09 Condo Traditional 1042 Whitebick Drive San Jose, CA 95129 $1,288,000 1,368 sq. ft. 1,742 sq. ft. $942
2017-08-09 Condo 49 Oakmore Drive San Jose, CA 95127 $650,000 1,800 sq. ft. 2,178 sq. ft. $361
2017-08-09 Condo 7150 Rainbow Drive San Jose, CA 95129 $958,600 1,050 sq. ft. 436 sq. ft. $913
2017-08-09 Condo 2990 Larciano Street San Jose, CA 95136 $839,000 1,938 sq. ft. 1,742 sq. ft. $433
2017-08-09 Condo 2764 Somerset Park Circle San Jose, CA 95132 $399,000 677 sq. ft. 1,742 sq. ft. $589
2017-08-08 Condo Contemporary 1507 Fairway Green Circle San Jose, CA 95131 $900,000 1,757 sq. ft. 1,742 sq. ft. $512
2017-08-08 Condo 5216 Pelican Court San Jose, CA 95123 $569,000 1,142 sq. ft. 1,742 sq. ft. $498
2017-08-08 Condo 1311 Bottle Brush Lane San Jose, CA 95118 $789,888 1,450 sq. ft. 1,742 sq. ft. $545
2017-08-08 Condo 1051 Villa Maria Court San Jose, CA 95125 $779,888 1,353 sq. ft. 1,307 sq. ft. $576
2017-08-08 Condo 2194 Santoro Lane San Jose, CA 95124 $829,000 1,396 sq. ft. 2,614 sq. ft. $594
2017-08-08 Condo 3081 Teal Ridge Court San Jose, CA 95136 $599,999 1,103 sq. ft. $544
2017-08-08 Condo 442 Willard Avenue San Jose, CA 95126 $399,000 771 sq. ft. 871 sq. ft. $518
2017-08-07 Condo 259 Capitol Avenue San Jose, CA 95127 $335,000 777 sq. ft. $431
2017-08-07 Condo 5656 Calmor Avenue San Jose, CA 95123 $430,000 903 sq. ft. $476
2017-08-07 Condo 386 11th Street San Jose, CA 95112 $539,000 1,050 sq. ft. 1,307 sq. ft. $513
2017-08-07 Condo Spanish 17 Keeble Avenue San Jose, CA 95126 $880,000 1,678 sq. ft. 871 sq. ft. $524
2017-08-07 Condo Contemporary 72 Rancho Drive San Jose, CA 95111 $375,000 918 sq. ft. $408
2017-08-07 Condo 1421 Alma Loop San Jose, CA 95125 $400,000 784 sq. ft. $510
2017-08-07 Condo Contemporary 1459 Woodgrove Square San Jose, CA 95117 $739,000 1,292 sq. ft. 1,307 sq. ft. $572
2017-08-07 Condo 2240 Galveston Avenue San Jose, CA 95122 $490,000 1,125 sq. ft. 871 sq. ft. $436
2017-08-06 Condo Traditional 617 Balfour Drive San Jose, CA 95111 $338,888 668 sq. ft. $507
2017-08-05 Condo 548 Quailbrook Court San Jose, CA 95110 $769,950 1,617 sq. ft. 1,742 sq. ft. $476
2017-08-05 Condo 2363 Meadowmont Drive San Jose, CA 95133 $569,950 1,342 sq. ft. 1,742 sq. ft. $425
2017-08-05 Condo 7147 Aptos Beach Court San Jose, CA 95139 $685,000 1,674 sq. ft. 2,178 sq. ft. $409
2017-08-05 Condo 3594 Klaus Drive San Jose, CA 95121 $699,500 1,625 sq. ft. 2,178 sq. ft. $430
2017-08-05 Condo Contemporary 5235 Cribari Hills San Jose, CA 95135 $449,000 947 sq. ft. 1,307 sq. ft. $474
2017-08-05 Condo 2366 Meadowmont Drive San Jose, CA 95133 $738,800 1,596 sq. ft. 1,742 sq. ft. $463
2017-08-04 Condo Traditional 2925 Florence Avenue San Jose, CA 95127 $449,000 960 sq. ft. 871 sq. ft. $468
2017-08-04 Condo Contemporary 1390 Saddle Rack Street San Jose, CA 95126 $499,000 917 sq. ft. 871 sq. ft. $544
2017-08-04 Condo Contemporary 1390 Saddle Rack St San Jose, CA 95126 $499,000 917 sq. ft. 871 sq. ft. $544
2017-08-04 Condo Contemporary 175 Saint James Street San Jose, CA 95110 $698,888 1,190 sq. ft. 436 sq. ft. $587
2017-08-04 Condo Contemporary 130 San Fernando Street San Jose, CA 95112 $868,888 1,752 sq. ft. $496
2017-08-04 Condo 2138 Samaritan Drive San Jose, CA 95124 $900,000 1,464 sq. ft. 1,307 sq. ft. $615
2017-08-04 Condo 8343 Riesling Way San Jose, CA 95135 $759,000 1,803 sq. ft. 3,485 sq. ft. $421
2017-08-04 Condo 1375 Lick Avenue San Jose, CA 95110 $539,000 1,046 sq. ft. 1,307 sq. ft. $515
2017-08-04 Condo 6536 Cobblestone Court San Jose, CA 95120 $789,000 1,124 sq. ft. 2,178 sq. ft. $702
2017-08-04 Condo 3130 Shofner Place San Jose, CA 95111 $439,888 1,131 sq. ft. 436 sq. ft. $389
2017-08-04 Condo 7124 Coral Gables Circle San Jose, CA 95139 $620,000 1,640 sq. ft. 3,485 sq. ft. $378
2017-08-04 Condo 6228 Tibouchina Lane San Jose, CA 95119 $699,000 1,318 sq. ft. 871 sq. ft. $530
2017-08-04 Condo 1000 Summerplace Drive San Jose, CA 95122 $448,888 1,124 sq. ft. $399
2017-08-04 Condo Contemporary 411 Park Avenue San Jose, CA 95110 $549,000 769 sq. ft. 1,742 sq. ft. $714
2017-08-03 Condo 498 Ginkgo Court San Jose, CA 95111 $385,000 801 sq. ft. 1,742 sq. ft. $481
2017-08-03 Condo 289 Tradewinds Drive San Jose, CA 95123 $399,000 959 sq. ft. 2,614 sq. ft. $416
2017-08-03 Condo 657 Capitol Avenue San Jose, CA 95133 $739,000 1,504 sq. ft. 1,307 sq. ft. $491
2017-08-03 Condo 5379 Deodara Grove Court San Jose, CA 95123 $558,500 1,156 sq. ft. 871 sq. ft. $483
2017-08-03 Condo 88 Bush Street San Jose, CA 95126 $830,000 1,195 sq. ft. 436 sq. ft. $695
2017-08-03 Condo Contemporary 6999 Rodling Drive San Jose, CA 95138 $599,000 1,335 sq. ft. 871 sq. ft. $449
2017-08-03 Condo 2241 Sun Glory Lane San Jose, CA 95124 $619,000 974 sq. ft. 1,307 sq. ft. $636
2017-08-03 Condo 4527 Huntington Lane San Jose, CA 95136 $737,990 1,329 sq. ft. 871 sq. ft. $555
2017-08-03 Condo 1249 Weibel Way San Jose, CA 95125 $749,000 1,080 sq. ft. 871 sq. ft. $694
2017-08-03 Condo 15 Torregata Loop San Jose, CA 95134 $749,000 1,139 sq. ft. 871 sq. ft. $658
2017-08-03 Condo 353 Kenbrook Circle San Jose, CA 95111 $510,000 1,094 sq. ft. 1,307 sq. ft. $466
2017-08-02 Condo Contemporary 301 Guanacaste Court San Jose, CA 95116 $469,900 1,180 sq. ft. 871 sq. ft. $398
2017-08-02 Condo 120 Kenbrook Circle San Jose, CA 95111 $379,000 950 sq. ft. 1,307 sq. ft. $399
2017-08-02 Condo 6089 Calle De Amor San Jose, CA 95124 $799,950 1,490 sq. ft. 2,178 sq. ft. $537
2017-08-02 Condo 1211 La Terrace Circle San Jose, CA 95123 $499,000 904 sq. ft. $552
2017-08-02 Condo 1820 Glacier Bay Terrace San Jose, CA 95131 $849,999 1,651 sq. ft. 436 sq. ft. $515
2017-08-01 Condo 809 Auzerais Avenue San Jose, CA 95126 $599,000 1,229 sq. ft. 436 sq. ft. $487
2017-08-01 Condo 420 Milan Drive San Jose, CA 95134 $749,000 1,254 sq. ft. 3,920 sq. ft. $597
2017-08-01 Condo 1424 Foothill Meadows Court San Jose, CA 95131 $575,000 988 sq. ft. $582
2017-08-01 Condo 1624 Brookvale Drive San Jose, CA 95129 $1,098,000 985 sq. ft. 871 sq. ft. $1,115
2017-08-01 Condo 6090 Montgomery Court San Jose, CA 95135 $445,000 913 sq. ft. 871 sq. ft. $487
2017-08-01 Condo 1836 Deep Creek Court San Jose, CA 95148 $599,000 1,720 sq. ft. 2,178 sq. ft. $348
2017-08-01 Condo 3179 Loma Verde Drive San Jose, CA 95117 $669,000 1,306 sq. ft. 1,307 sq. ft. $512
2017-07-31 Condo 8455 Traminer Court San Jose, CA 95135 $629,999 1,497 sq. ft. 2,614 sq. ft. $421
2017-07-31 Condo 541 Groth Place San Jose, CA 95111 $530,000 1,392 sq. ft. 871 sq. ft. $381
2017-07-30 Condo 3324 Landess Avenue San Jose, CA 95132 $585,000 1,130 sq. ft. 871 sq. ft. $518
2017-07-30 Condo Contemporary 3220 Shadow Springs Place San Jose, CA 95121 $410,000 911 sq. ft. $450
2017-07-30 Condo Contemporary 191 Colonade Square San Jose, CA 95127 $480,000 1,161 sq. ft. 1,307 sq. ft. $413
2017-07-28 Condo 4642 Hampton Falls Place San Jose, CA 95136 $749,000 1,745 sq. ft. 436 sq. ft. $429
2017-07-28 Condo 4709 Holston River Court San Jose, CA 95136 $615,000 1,104 sq. ft. 2,178 sq. ft. $557
2017-07-28 Condo 689 Modern Ice Drive San Jose, CA 95112 $659,168 1,330 sq. ft. 1,307 sq. ft. $496
2017-07-28 Condo 5683 Playa Del Rey San Jose, CA 95123 $395,000 798 sq. ft. 7,841 sq. ft. $495
2017-07-28 Condo 8511 Fume Blanc Court San Jose, CA 95135 $659,500 1,646 sq. ft. 3,049 sq. ft. $401
2017-07-28 Condo 1656 Braddock Court San Jose, CA 95125 $649,000 1,020 sq. ft. 1,307 sq. ft. $636
2017-07-28 Condo 130 San Fernando Street San Jose, CA 95112 $698,000 1,622 sq. ft. 436 sq. ft. $430
2017-07-28 Condo Contemporary 2581 Yerba Bank Court San Jose, CA 95121 $750,000 1,216 sq. ft. 436 sq. ft. $617
2017-07-28 Condo 2463 Jubilee Lane San Jose, CA 95131 $419,000 645 sq. ft. 1,742 sq. ft. $650
2017-07-28 Condo 5664 Sunflower Lane San Jose, CA 95118 $725,000 1,450 sq. ft. 1,742 sq. ft. $500
2017-07-28 Condo 60 Cherryton Lane San Jose, CA 95136 $565,000 1,351 sq. ft. 871 sq. ft. $418
2017-07-27 Condo Contemporary 209 Esfahan Drive San Jose, CA 95111 $705,000 1,640 sq. ft. 1,307 sq. ft. $430
2017-07-27 Condo 5248 Cribari Hills San Jose, CA 95135 $465,000 947 sq. ft. 1,307 sq. ft. $491
2017-07-27 Condo Contemporary 1071 Dewberry Place San Jose, CA 95131 $838,000 1,690 sq. ft. 436 sq. ft. $496
2017-07-27 Condo 1543 Desdemona Court San Jose, CA 95121 $462,500 1,176 sq. ft. 871 sq. ft. $393
2017-07-27 Condo Contemporary 4954 Paseo Tranquillo San Jose, CA 95118 $725,000 1,395 sq. ft. 1,307 sq. ft. $520
2017-07-27 Condo 88 Bush Street San Jose, CA 95126 $670,000 841 sq. ft. 436 sq. ft. $797
2017-07-27 Condo 874 Catkin Court San Jose, CA 95128 $549,000 922 sq. ft. 1,742 sq. ft. $595
2017-07-27 Condo 5513 Judith Street San Jose, CA 95123 $379,900 810 sq. ft. 1,742 sq. ft. $469
2017-07-26 Condo 310 Tradewinds Drive San Jose, CA 95123 $555,000 1,252 sq. ft. 2,614 sq. ft. $443
2017-07-26 Condo 1030 Yarwood Court San Jose, CA 95128 $399,000 658 sq. ft. 1,307 sq. ft. $606
2017-07-26 Condo 854 Toiyabe Court San Jose, CA 95133 $575,000 1,042 sq. ft. 1,742 sq. ft. $552
2017-07-26 Condo 763 Warring Drive San Jose, CA 95123 $429,000 810 sq. ft. 8,276 sq. ft. $530
2017-07-26 Condo 85 Montecito Vista Drive San Jose, CA 95111 $736,595 1,452 sq. ft. $507
2017-07-26 Condo Contemporary 1081 Zucchini Terrace San Jose, CA 95133 $800,000 1,489 sq. ft. 436 sq. ft. $537
2017-07-26 Condo 88 San Fernando Street San Jose, CA 95113 $628,888 889 sq. ft. 436 sq. ft. $707
2017-07-26 Condo 6221 Sunstone Drive San Jose, CA 95123 $769,000 1,793 sq. ft. 1,307 sq. ft. $429
2017-07-26 Condo Tudor 1226 Hawkhurst Place San Jose, CA 95125 $959,000 2,022 sq. ft. 3,920 sq. ft. $474
2017-07-26 Condo 1028 Whitebick Drive San Jose, CA 95129 $1,200,000 1,598 sq. ft. 1,742 sq. ft. $751
2017-07-26 Condo 1915 La Terrace Circle San Jose, CA 95123 $498,888 904 sq. ft. 436 sq. ft. $552
2017-07-26 Condo 4661 Albany Circle San Jose, CA 95129 $484,000 813 sq. ft. 1,742 sq. ft. $595
2017-07-25 Condo 3226 Lago De Como Place San Jose, CA 95136 $709,000 1,408 sq. ft. 871 sq. ft. $504
2017-07-25 Condo 2249 Sun Glory Lane San Jose, CA 95124 $615,000 998 sq. ft. 1,307 sq. ft. $616
2017-07-25 Condo 2620 Lakme Court San Jose, CA 95121 $429,888 988 sq. ft. 871 sq. ft. $435
2017-07-25 Condo 2570 Yerba Bank Court San Jose, CA 95121 $688,888 1,216 sq. ft. 871 sq. ft. $567
2017-07-25 Condo 396 Marble Arch Avenue San Jose, CA 95136 $729,000 1,631 sq. ft. 1,742 sq. ft. $447
2017-07-25 Condo 5502 Sean Circle San Jose, CA 95123 $499,000 1,245 sq. ft. 3,485 sq. ft. $401
2017-07-25 Condo 2317 Saidel Drive San Jose, CA 95124 $529,000 798 sq. ft. 2,614 sq. ft. $663
2017-07-25 Condo 460 Auburn Way San Jose, CA 95129 $549,888 1,099 sq. ft. 436 sq. ft. $500
2017-07-25 Condo 676 Capitol Avenue San Jose, CA 95133 $749,999 1,522 sq. ft. 1,307 sq. ft. $493
2017-07-25 Condo Contemporary 6974 Gregorich Drive San Jose, CA 95138 $549,000 1,093 sq. ft. 871 sq. ft. $502
2017-07-25 Condo 1030 Liebelt Court San Jose, CA 95126 $727,000 1,450 sq. ft. 1,307 sq. ft. $501
2017-07-25 Condo Contemporary 4922 Paseo Tranquillo San Jose, CA 95118 $718,000 1,395 sq. ft. 1,307 sq. ft. $515
2017-07-24 Condo 8124 Cabernet Court San Jose, CA 95135 $639,000 1,497 sq. ft. 2,614 sq. ft. $427
2017-07-24 Condo 2625 Corde Terra Circle San Jose, CA 95111 $695,000 1,650 sq. ft. 1,307 sq. ft. $421
2017-07-24 Condo 659 Boynton Avenue San Jose, CA 95117 $729,000 1,187 sq. ft. 871 sq. ft. $614
2017-07-23 Condo 3057 San Jose Vineyard Place San Jose, CA 95136 $877,052 1,905 sq. ft. $460
2017-07-23 Condo 4970 Cherry Avenue San Jose, CA 95118 $430,000 675 sq. ft. 1,742 sq. ft. $637
2017-07-23 Condo 1103 Indian Summer Court San Jose, CA 95122 $357,000 720 sq. ft. $496
2017-07-23 Condo 5407 Cribari Court San Jose, CA 95135 $399,000 1,223 sq. ft. 1,742 sq. ft. $326
2017-07-22 Condo 5327 Cribari Glen San Jose, CA 95135 $447,000 1,223 sq. ft. 1,742 sq. ft. $365
2017-07-21 Condo 5083 Sutter Creek Circle San Jose, CA 95136 $450,000 816 sq. ft. $551
2017-07-21 Condo 2988 Grassina Street San Jose, CA 95136 $655,000 1,200 sq. ft. 2,178 sq. ft. $546
2017-07-21 Condo 6144 Montgomery Place San Jose, CA 95135 $570,000 1,307 sq. ft. 2,614 sq. ft. $436
2017-07-21 Condo 5505 Great Oaks Parkway San Jose, CA 95123 $729,550 1,356 sq. ft. $538
2017-07-21 Condo 125 Hudson Place San Jose, CA 95123 $795,086 1,739 sq. ft. $457
2017-07-21 Condo 5498 Judith Street San Jose, CA 95123 $418,000 903 sq. ft. 1,742 sq. ft. $463
2017-07-21 Condo Contemporary 5940 Jenny Lind Court San Jose, CA 95120 $1,189,000 2,454 sq. ft. 2,614 sq. ft. $485
2017-07-21 Condo 772 Batista Drive San Jose, CA 95136 $888,888 2,356 sq. ft. 3,485 sq. ft. $377
2017-07-20 Condo 1010 Summerplace Drive San Jose, CA 95122 $410,000 1,004 sq. ft. 436 sq. ft. $408
2017-07-20 Condo Contemporary 2106 Beech Circle San Jose, CA 95131 $838,000 1,536 sq. ft. 1,742 sq. ft. $546
2017-07-20 Condo 1280 Starglo Place San Jose, CA 95131 $799,000 1,457 sq. ft. 436 sq. ft. $548
2017-07-20 Condo 130 Bob Hansen Court San Jose, CA 95116 $530,000 1,277 sq. ft. 1,742 sq. ft. $415
2017-07-20 Condo 3351 Lake Albano Circle San Jose, CA 95135 $685,000 1,457 sq. ft. 436 sq. ft. $470
2017-07-20 Condo 8017 Pinot Noir Court San Jose, CA 95135 $429,900 811 sq. ft. 871 sq. ft. $530
2017-07-20 Condo 38 Almaden Boulevard San Jose, CA 95110 $650,000 868 sq. ft. 0 sq. ft. $749
2017-07-20 Condo 235 El Rancho Verde Drive San Jose, CA 95116 $502,800 1,474 sq. ft. 871 sq. ft. $341
2017-07-19 Condo 535 Elk Ridge Way San Jose, CA 95136 $610,000 1,173 sq. ft. $520
2017-07-19 Condo Contemporary 812 Sevin Terrace San Jose, CA 95133 $725,000 1,292 sq. ft. 1,307 sq. ft. $561
2017-07-19 Condo 414 Adeline Avenue San Jose, CA 95136 $789,000 1,750 sq. ft. 1,742 sq. ft. $451
2017-07-19 Condo Contemporary 5248 Cribari Hls San Jose, CA 95135 $465,000 947 sq. ft. 1,307 sq. ft. $491
2017-07-19 Condo Contemporary 5597 Makati Circle San Jose, CA 95123 $612,000 1,217 sq. ft. 1,742 sq. ft. $503
2017-07-19 Condo 38 Almaden Boulevard San Jose, CA 95110 $649,000 791 sq. ft. 0 sq. ft. $820
2017-07-19 Condo 6133 Golden Vista Drive San Jose, CA 95123 $749,000 1,793 sq. ft. 1,307 sq. ft. $418
2017-07-19 Condo Contemporary 3066 Aralia Lane San Jose, CA 95135 $1,160,000 2,114 sq. ft. 2,614 sq. ft. $549
2017-07-18 Condo 3119 Lake Albano Circle San Jose, CA 95135 $775,000 1,679 sq. ft. 2,178 sq. ft. $462
2017-07-18 Condo 910 La Barbera Drive San Jose, CA 95126 $599,000 987 sq. ft. 871 sq. ft. $607
2017-07-18 Condo Contemporary 2628 Villa Cortona Way San Jose, CA 95125 $649,000 1,482 sq. ft. 871 sq. ft. $438
2017-07-18 Condo 2639 Villa Cortona Way San Jose, CA 95125 $749,950 1,790 sq. ft. 871 sq. ft. $419
2017-07-18 Condo 5508 Sean Circle San Jose, CA 95123 $528,000 1,245 sq. ft. 3,485 sq. ft. $424
2017-07-18 Condo 809 Capitol Avenue San Jose, CA 95133 $419,950 903 sq. ft. 1,307 sq. ft. $465
2017-07-18 Condo 1093 Norfolk Drive San Jose, CA 95129 $999,000 1,042 sq. ft. 2,614 sq. ft. $959
2017-07-17 Condo 3126 Villa East Hills Court San Jose, CA 95127 $539,999 1,413 sq. ft. 1,307 sq. ft. $382
2017-07-17 Condo 5692 Makati Circle San Jose, CA 95123 $510,000 989 sq. ft. 871 sq. ft. $516
2017-07-17 Condo 5963 Drytown Place San Jose, CA 95120 $1,399,000 2,923 sq. ft. 4,356 sq. ft. $479
2017-07-16 Condo Contemporary 2310 Olivegate Lane San Jose, CA 95136 $529,950 1,296 sq. ft. 1,307 sq. ft. $409
2017-07-15 Condo 1768 Parkview Green Circle San Jose, CA 95131 $575,000 719 sq. ft. 1,742 sq. ft. $800
2017-07-14 Condo 1432 Park Entrance Drive San Jose, CA 95131 $659,000 1,075 sq. ft. $613
2017-07-14 Condo 1562 Fitchville Avenue San Jose, CA 95126 $799,000 1,470 sq. ft. 1,307 sq. ft. $544
2017-07-14 Condo 5515 Cribari Bend San Jose, CA 95135 $375,000 947 sq. ft. 1,307 sq. ft. $396
2017-07-14 Condo 612 Messina Gardens Lane San Jose, CA 95133 $779,888 1,409 sq. ft. 1,307 sq. ft. $554
2017-07-14 Condo 262 Kenbrook Circle San Jose, CA 95111 $487,950 1,012 sq. ft. $482
2017-07-13 Condo 978 Silicon Drive San Jose, CA 95126 $612,999 1,000 sq. ft. 1,307 sq. ft. $613
2017-07-13 Condo 588 7 Trees Village Way San Jose, CA 95111 $429,000 1,249 sq. ft. 1,307 sq. ft. $343
2017-07-13 Condo 2570 Baton Rouge Drive San Jose, CA 95133 $799,000 1,648 sq. ft. 1,307 sq. ft. $485
2017-07-13 Condo 532 Giuffrida Avenue San Jose, CA 95123 $439,000 812 sq. ft. $541
2017-07-13 Condo 660 Encore Way San Jose, CA 95134 $675,000 925 sq. ft. 1,742 sq. ft. $730
2017-07-13 Condo 247 Capitol Avenue San Jose, CA 95127 $325,000 828 sq. ft. $393
2017-07-13 Condo 379 Shadow Run Drive San Jose, CA 95110 $399,000 621 sq. ft. 871 sq. ft. $643
2017-07-13 Condo 165 San Pedro Circle San Jose, CA 95110 $849,000 1,916 sq. ft. 1,742 sq. ft. $443
2017-07-13 Condo 604 Hermes Court San Jose, CA 95111 $599,900 1,496 sq. ft. 2,178 sq. ft. $401
2017-07-13 Condo 1310 Saddle Rack Street San Jose, CA 95126 $649,000 1,258 sq. ft. 1,307 sq. ft. $516
2017-07-13 Condo Contemporary 2718 Ferrara Circle San Jose, CA 95111 $799,000 2,042 sq. ft. 1,307 sq. ft. $391
2017-07-13 Condo 2643 Gimelli Way San Jose, CA 95133 $510,000 1,100 sq. ft. 1,307 sq. ft. $464
2017-07-13 Condo Craftsman 3184 Shofner Place San Jose, CA 95111 $398,888 762 sq. ft. 871 sq. ft. $523
2017-07-11 Condo 22 Castlecrest Drive San Jose, CA 95116 $289,900 456 sq. ft. 1,742 sq. ft. $636
2017-07-11 Condo 78 Bear Claw Way San Jose, CA 95136 $625,000 1,452 sq. ft. 436 sq. ft. $430
2017-07-11 Condo 813 Wyman Way San Jose, CA 95133 $429,950 903 sq. ft. 1,307 sq. ft. $476
2017-07-11 Condo 1124 Mallard Ridge Loop San Jose, CA 95120 $1,160,000 1,835 sq. ft. 2,614 sq. ft. $632
2017-07-11 Condo Contemporary 3314 Innerwick Lane San Jose, CA 95121 $549,500 1,131 sq. ft. 1,742 sq. ft. $486
2017-07-11 Condo 6906 Chantel Court San Jose, CA 95129 $575,000 582 sq. ft. $988
2017-07-11 Condo Mediterranean 4318 Lautrec Drive San Jose, CA 95135 $979,000 1,601 sq. ft. 3,485 sq. ft. $611
2017-07-11 Condo 566 Almaden Walk Loop San Jose, CA 95125 $749,900 1,410 sq. ft. 14,810 sq. ft. $532
2017-07-10 Condo 88 San Fernando Street San Jose, CA 95113 $670,000 1,097 sq. ft. 436 sq. ft. $611
2017-07-10 Condo 410 1st. #332 San Jose, CA 95112 $725,000 1,548 sq. ft. 1,742 sq. ft. $468
2017-07-10 Condo Contemporary; Cottage 794 Snow Terrace San Jose, CA 95111 $575,000 1,640 sq. ft. 1,307 sq. ft. $351
2017-07-08 Condo 1426 Park Entrance Drive San Jose, CA 95131 $688,000 1,203 sq. ft. 436 sq. ft. $572
2017-07-07 Condo 38 Almaden Boulevard San Jose, CA 95110 $650,000 975 sq. ft. 0 sq. ft. $667
2017-07-07 Condo 38 Almaden Boulevard San Jose, CA 95110 $674,000 868 sq. ft. 0 sq. ft. $776
2017-07-07 Condo Contemporary 1426 Park Entrance Dr San Jose, CA 95131 $688,000 1,203 sq. ft. 436 sq. ft. $572
2017-07-07 Condo Contemporary 6151 Camino Verde Drive San Jose, CA 95119 $499,888 992 sq. ft. 871 sq. ft. $504
2017-07-07 Condo 283 Tradewinds Drive San Jose, CA 95123 $468,888 992 sq. ft. 2,614 sq. ft. $473
2017-07-07 Condo 636 Celebration Court San Jose, CA 95134 $668,000 925 sq. ft. 1,742 sq. ft. $722
2017-07-07 Condo 7393 Via Cantares San Jose, CA 95135 $585,000 1,442 sq. ft. $406
2017-07-07 Condo 951 Lakeshire Court San Jose, CA 95126 $749,950 1,161 sq. ft. 2,178 sq. ft. $646
2017-07-07 Condo Contemporary 2177 Alum Rock Avenue San Jose, CA 95116 $529,000 1,216 sq. ft. 1,742 sq. ft. $435
2017-07-07 Condo 2051 Kiwi Walkway San Jose, CA 95133 $744,999 1,297 sq. ft. 436 sq. ft. $574
2017-07-07 Condo 110 Monte Verano Court San Jose, CA 95116 $359,000 877 sq. ft. 1,742 sq. ft. $409
2017-07-06 Condo 592 Messina Gardens Lane San Jose, CA 95133 $799,000 1,522 sq. ft. 1,307 sq. ft. $525
2017-07-06 Condo 473 Sieber Court San Jose, CA 95111 $425,000 762 sq. ft. 871 sq. ft. $558
2017-07-06 Condo 1772 Bevin Brook Drive San Jose, CA 95112 $475,000 955 sq. ft. 871 sq. ft. $497
2017-07-06 Condo 1359 Phelps Avenue San Jose, CA 95117 $484,000 840 sq. ft. 871 sq. ft. $576
2017-07-06 Condo 287 Truckee Lane San Jose, CA 95136 $569,500 1,272 sq. ft. 1,307 sq. ft. $448
2017-07-05 Condo 766 Dragonfly Court San Jose, CA 95133 $689,000 1,596 sq. ft. 1,742 sq. ft. $432
2017-07-05 Condo Contemporary 2043 Nola Ranch Way San Jose, CA 95133 $800,000 1,528 sq. ft. 436 sq. ft. $524
2017-07-05 Condo 6142 Montgomery Place San Jose, CA 95135 $549,500 1,307 sq. ft. 2,614 sq. ft. $420
2017-07-05 Condo 2823 Buena Knoll Court San Jose, CA 95121 $645,000 1,216 sq. ft. 871 sq. ft. $530
2017-07-05 Condo Contemporary 2640 Senter Creek Court San Jose, CA 95111 $460,000 1,146 sq. ft. 1,307 sq. ft. $401
2017-07-05 Condo Contemporary 381 Reading Place San Jose, CA 95123 $819,254 2,209 sq. ft. $371
2017-06-30 Condo 5461 Tradewinds Walkway San Jose, CA 95123 $419,000 903 sq. ft. 1,742 sq. ft. $464
2017-06-30 Condo 1144 Cedar Gables Drive San Jose, CA 95118 $530,000 824 sq. ft. $643
2017-06-30 Condo 38 Almaden Boulevard San Jose, CA 95110 $1,100,000 1,502 sq. ft. 0 sq. ft. $732
2017-06-30 Condo 8113 Cabernet San Jose, CA 95135 $675,000 1,554 sq. ft. 1,307 sq. ft. $434
2017-06-29 Condo Mediterranean 2171 Sonador Commons San Jose, CA 95128 $699,000 1,393 sq. ft. 1,742 sq. ft. $502
2017-06-29 Condo Contemporary 795 Modern Ice Drive San Jose, CA 95112 $678,888 1,288 sq. ft. 1,742 sq. ft. $527
2017-06-29 Condo Victorian 814 2nd Street San Jose, CA 95112 $899,000 2,058 sq. ft. 1,307 sq. ft. $437
2017-06-29 Condo 1061 Tekman Drive San Jose, CA 95122 $425,000 912 sq. ft. 871 sq. ft. $466
2017-06-27 Condo Contemporary 38 Almaden Boulevard San Jose, CA 95110 $999,000 1,333 sq. ft. 0 sq. ft. $749
2017-06-27 Condo 906 Goose Lake Court San Jose, CA 95123 $595,000 982 sq. ft. 1,307 sq. ft. $606
2017-06-26 Condo 408 Tortola Way San Jose, CA 95133 $495,000 1,067 sq. ft. 871 sq. ft. $464
2017-06-24 Condo 826 Sevin Terrace San Jose, CA 95133 $699,999 1,369 sq. ft. 1,307 sq. ft. $511
2017-06-22 Condo Contemporary 2411 Sequester Court San Jose, CA 95133 $489,000 890 sq. ft. $549
2017-06-22 Condo Contemporary 2411 Sequester Ct San Jose, CA 95133 $489,000 890 sq. ft. 436 sq. ft. $549
2017-06-22 Condo 1103 Longshore Drive San Jose, CA 95128 $848,000 1,606 sq. ft. 3,485 sq. ft. $528
2017-06-22 Condo 3277 Vineyard Park Way San Jose, CA 95135 $849,950 1,398 sq. ft. 871 sq. ft. $608
2017-06-22 Condo Farm House 1076 Myrtle Street San Jose, CA 95126 $978,000 1,666 sq. ft. 6,098 sq. ft. $587
2017-06-22 Condo Farm House 1074 Myrtle Street San Jose, CA 95126 $988,000 1,722 sq. ft. 6,098 sq. ft. $574
2017-06-22 Condo 3192 Cropley Avenue San Jose, CA 95132 $525,000 1,003 sq. ft. 871 sq. ft. $523
2017-06-22 Condo 834 Owens Lake Drive San Jose, CA 95123 $570,000 867 sq. ft. 1,307 sq. ft. $657
2017-06-22 Condo 2505 Dillion Court San Jose, CA 95133 $375,000 903 sq. ft. 1,307 sq. ft. $415
2017-06-21 Condo 101 Laurel Grove Ln San Jose, CA 95126 $819,000 1,640 sq. ft. 1,699 sq. ft. $499
2017-06-21 Condo 1103 Longshore Dr San Jose, CA 95128 $848,000 1,606 sq. ft. 3,485 sq. ft. $528
2017-06-21 Condo 7253 Via Vico San Jose, CA 95129 $888,000 1,192 sq. ft. 1,760 sq. ft. $745
2017-06-21 Condo 2505 Dillion Ct 3 San Jose, CA 95133 $375,000 903 sq. ft. 1,498 sq. ft. $415
2017-06-21 Condo 3192 Cropley Ave San Jose, CA 95132 $525,000 1,003 sq. ft. 706 sq. ft. $523
2017-06-21 Condo 834 Owens Lake Dr San Jose, CA 95123 $570,000 867 sq. ft. 1,211 sq. ft. $657
2017-06-21 Condo Modern / High Tech 125 Patterson St 136 San Jose, CA 95112 $575,000 1,218 sq. ft. 727 sq. ft. $472
2017-06-21 Condo 4631 Columbia River Ct San Jose, CA 95136 $649,900 1,760 sq. ft. 1,847 sq. ft. $369
2017-06-21 Condo 4644 Hampton Falls Pl San Jose, CA 95136 $749,950 1,745 sq. ft. 436 sq. ft. $430
2017-06-21 Condo 801 S Winchester Blvd 5202 San Jose, CA 95128 $688,000 986 sq. ft. 893 sq. ft. $698
2017-06-20 Condo Farm House 1076 Myrtle St San Jose, CA 95126 $978,000 1,666 sq. ft. 6,251 sq. ft. $587
2017-06-20 Condo Farm House 1074 Myrtle St San Jose, CA 95126 $988,000 1,722 sq. ft. 6,251 sq. ft. $574
2017-06-19 Condo 136 Spyglass Hill Rd San Jose, CA 95127 $649,888 1,703 sq. ft. 2,239 sq. ft. $382
2017-06-19 Condo 1737 Abington Ct San Jose, CA 95131 $600,000 987 sq. ft. 1,577 sq. ft. $608
2017-06-19 Condo 1898 Meridian Ave 36 San Jose, CA 95125 $669,888 1,312 sq. ft. 1,398 sq. ft. $511
2017-06-19 Condo 88 N Jackson Ave 303 San Jose, CA 95116 $448,888 1,056 sq. ft. 1,054 sq. ft. $425
2017-06-19 Condo 5234 Macaw Way San Jose, CA 95123 $529,000 1,052 sq. ft. 1,612 sq. ft. $503
2017-06-19 Condo 809 Basking Ln San Jose, CA 95138 $699,000 1,705 sq. ft. 1,703 sq. ft. $410
2017-06-19 Condo Contemporary 4786 Hatfield Walkway 3 San Jose, CA 95124 $519,000 903 sq. ft. 2,579 sq. ft. $575
2017-06-18 Condo Contemporary; Traditional 2925 Florence Ave 25 San Jose, CA 95127 $368,000 960 sq. ft. 958 sq. ft. $383
2017-06-18 Condo 2712 Buena View Ct San Jose, CA 95121 $585,000 843 sq. ft. 1,211 sq. ft. $694
2017-06-17 Condo 8786 Grape Wagon Cir San Jose, CA 95135 $825,000 1,675 sq. ft. 436 sq. ft. $493
2017-06-17 Condo 1550 Technology Dr 3089 San Jose, CA 95110 $500,000 831 sq. ft. 832 sq. ft. $602
2017-06-17 Condo 701 Applause Pl San Jose, CA 95134 $660,000 925 sq. ft. 1,577 sq. ft. $714
2017-06-16 Condo 1362 Branham Ln 3 San Jose, CA 95118 $449,950 903 sq. ft. 7,078 sq. ft. $498
2017-06-16 Condo 5193 Cribari Hls San Jose, CA 95135 $525,000 1,223 sq. ft. 1,664 sq. ft. $429
2017-06-16 Condo 8352 Charbono Court San Jose, CA 95135 $628,000 1,370 sq. ft. 3,049 sq. ft. $458
2017-06-16 Condo 5193 Cribari Hills San Jose, CA 95135 $525,000 1,223 sq. ft. 1,742 sq. ft. $429
2017-06-16 Condo 8352 Charbono Ct San Jose, CA 95135 $649,000 1,370 sq. ft. 2,962 sq. ft. $474
2017-06-16 Condo Contemporary 144 S 3rd St 125 San Jose, CA 95112 $699,950 1,542 sq. ft. 841 sq. ft. $454
2017-06-16 Condo 2023 San Antonio Street San Jose, CA 95116 $590,000 1,278 sq. ft. 1,307 sq. ft. $462
2017-06-16 Condo 2023 E San Antonio St San Jose, CA 95116 $590,000 1,278 sq. ft. 1,307 sq. ft. $462
2017-06-16 Condo Contemporary 3873 Jasmine Cir San Jose, CA 95135 $650,000 1,037 sq. ft. 1,198 sq. ft. $627
2017-06-16 Condo Contemporary 1030 N Jackson Ave San Jose, CA 95133 $749,888 1,697 sq. ft. 436 sq. ft. $442
2017-06-15 Condo 5390 Colony Park Cir San Jose, CA 95123 $499,000 942 sq. ft. 436 sq. ft. $530
2017-06-15 Condo 860 Catkin Ct San Jose, CA 95128 $525,000 922 sq. ft. 1,960 sq. ft. $569
2017-06-15 Condo 2176 Luz Ave San Jose, CA 95116 $398,888 956 sq. ft. 976 sq. ft. $417
2017-06-15 Condo 1040 Lincoln Village Dr San Jose, CA 95125 $849,000 1,319 sq. ft. 3,058 sq. ft. $644
2017-06-15 Condo English 848 Georgetown Pl San Jose, CA 95126 $949,000 1,859 sq. ft. 1,006 sq. ft. $510
2017-06-15 Condo 503 Golfview Dr San Jose, CA 95127 $679,000 1,640 sq. ft. 2,082 sq. ft. $414
2017-06-15 Condo 1133 Quail Run Ct San Jose, CA 95118 $715,000 1,420 sq. ft. 1,442 sq. ft. $504
2017-06-15 Condo 5428 Cribari Ct San Jose, CA 95135 $475,000 1,240 sq. ft. 1,664 sq. ft. $383
2017-06-15 Condo Contemporary 5214 Jacana Ln San Jose, CA 95123 $600,000 1,142 sq. ft. 1,821 sq. ft. $525
2017-06-15 Condo Mediterranean 516 Martha St 106 San Jose, CA 95112 $495,000 742 sq. ft. 745 sq. ft. $667
2017-06-15 Condo 5486 Don Andres Way San Jose, CA 95123 $449,950 884 sq. ft. 2,082 sq. ft. $509
2017-06-15 Condo 1137 Cooper River Dr San Jose, CA 95126 $748,888 1,150 sq. ft. 1,150 sq. ft. $651
2017-06-14 Condo 7680 Galloway Dr San Jose, CA 95135 $778,000 1,751 sq. ft. $444
2017-06-14 Condo 134 Monte Verano Ct San Jose, CA 95116 $379,000 902 sq. ft. 1,812 sq. ft. $420
2017-06-14 Condo 7079 Cypress Point Ct San Jose, CA 95139 $590,000 1,656 sq. ft. 2,113 sq. ft. $356
2017-06-14 Condo Contemporary 7714 Galloway Dr San Jose, CA 95135 $615,000 1,490 sq. ft. 436 sq. ft. $413
2017-06-14 Condo 721 Modern Ice Dr San Jose, CA 95112 $698,000 1,330 sq. ft. 1,342 sq. ft. $525
2017-06-14 Condo 4260 Ballatore Dr San Jose, CA 95134 $935,000 1,405 sq. ft. 871 sq. ft. $665
2017-06-14 Condo 106 Monte Verano Ct San Jose, CA 95116 $299,000 597 sq. ft. 1,812 sq. ft. $501
2017-06-14 Condo 415 Capricorn Ct San Jose, CA 95111 $399,000 1,197 sq. ft. 1,459 sq. ft. $333
2017-06-13 Condo 4551 Huntington Lane San Jose, CA 95136 $853,990 1,990 sq. ft. 1,742 sq. ft. $429
2017-06-13 Condo 4575 Huntington Lane San Jose, CA 95136 $856,990 2,009 sq. ft. 1,307 sq. ft. $427
2017-06-13 Condo 4551 Huntington Ln San Jose, CA 95136 $853,990 1,990 sq. ft. 1,660 sq. ft. $429
2017-06-13 Condo 4575 Huntington Ln San Jose, CA 95136 $856,990 2,009 sq. ft. 1,246 sq. ft. $427
2017-06-13 Condo 5703 Makati Cir C San Jose, CA 95123 $499,000 995 sq. ft. $502
2017-06-13 Condo Contemporary 1477 W San Carlos St San Jose, CA 95126 $797,000 1,468 sq. ft. 1,912 sq. ft. $543
2017-06-13 Condo Traditional 8600 Vineyard Creek Ct San Jose, CA 95135 $725,000 1,415 sq. ft. 436 sq. ft. $512
2017-06-13 Condo 2136 Sheffield Dr San Jose, CA 95131 $848,950 1,376 sq. ft. 2,026 sq. ft. $617
2017-06-13 Condo 2180 Mendocino Ln San Jose, CA 95124 $849,000 1,464 sq. ft. 1,407 sq. ft. $580
2017-06-13 Condo 410 Auburn Way 11 San Jose, CA 95129 $518,000 1,099 sq. ft. 549 sq. ft. $471
2017-06-13 Condo 951 S 12th St 104 San Jose, CA 95112 $499,000 1,277 sq. ft. 1,276 sq. ft. $391
2017-06-13 Condo 490 Auburn Way 9 San Jose, CA 95129 $579,950 1,099 sq. ft. 549 sq. ft. $528
2017-06-13 Condo 47 Silcreek Dr San Jose, CA 95116 $468,888 1,318 sq. ft. 436 sq. ft. $356
2017-06-13 Condo 217 Banana Grove Ln San Jose, CA 95123 $599,950 1,166 sq. ft. 1,873 sq. ft. $515
2017-06-12 Condo Contemporary 2738 Goble Ln 1 San Jose, CA 95111 $749,000 1,452 sq. ft. 1,433 sq. ft. $516
2017-06-12 Condo 5034 Cribari Vale San Jose, CA 95135 $434,950 1,223 sq. ft. 1,664 sq. ft. $356
2017-06-12 Condo 411 Park Ave 219 San Jose, CA 95110 $548,000 1,048 sq. ft. 1,742 sq. ft. $523
2017-06-12 Condo 1558 Alma Terrace San Jose, CA 95125 $569,000 1,071 sq. ft. 436 sq. ft. $531
2017-06-12 Condo Contemporary 7529 Morevern Circle San Jose, CA 95135 $654,995 1,572 sq. ft. 2,178 sq. ft. $417
2017-06-12 Condo 101 Bob Hansen Ct San Jose, CA 95116 $530,000 1,272 sq. ft. 1,664 sq. ft. $417
2017-06-12 Condo Contemporary 7529 Morevern Cir San Jose, CA 95135 $721,000 1,572 sq. ft. 2,082 sq. ft. $459
2017-06-12 Condo 97 Saint James Street San Jose, CA 95112 $549,000 1,203 sq. ft. 436 sq. ft. $456
2017-06-12 Condo 97 E Saint James St 38 San Jose, CA 95112 $599,000 1,203 sq. ft. 436 sq. ft. $498
2017-06-12 Condo Contemporary 354 Powerscourt Way San Jose, CA 95136 $735,000 1,568 sq. ft. 1,568 sq. ft. $469
2017-06-11 Condo 172 Oakbrook Cir Cl San Jose, CA 95139 $488,888 1,008 sq. ft. 1,041 sq. ft. $485
2017-06-10 Condo 3364 Bolsena Ct San Jose, CA 95135 $749,000 1,776 sq. ft. 1,808 sq. ft. $422
2017-06-10 Condo 2352 Warfield Way B San Jose, CA 95122 $420,000 885 sq. ft. 1,011 sq. ft. $475
2017-06-10 Condo Contemporary 826 Sevin Ter San Jose, CA 95133 $748,000 1,369 sq. ft. 1,350 sq. ft. $546
2017-06-10 Condo 1071 Foxchase Drive San Jose, CA 95123 $539,000 1,326 sq. ft. 1,307 sq. ft. $406
2017-06-10 Condo 88 N Jackson Ave 124 San Jose, CA 95116 $485,000 1,056 sq. ft. 1,054 sq. ft. $459
2017-06-10 Condo 1550 Technology Dr 1036 San Jose, CA 95110 $498,000 875 sq. ft. 876 sq. ft. $569
2017-06-10 Condo 1071 Foxchase Dr San Jose, CA 95123 $579,000 1,326 sq. ft. 1,324 sq. ft. $437
2017-06-10 Condo Contemporary 350 N 2nd St 309 San Jose, CA 95112 $585,000 976 sq. ft. 1,115 sq. ft. $599
2017-06-10 Condo 183 W Alma Ave San Jose, CA 95110 $589,000 1,200 sq. ft. 1,917 sq. ft. $491
2017-06-10 Condo Contemporary 3321 Lake Albano Cir San Jose, CA 95135 $739,950 1,776 sq. ft. 1,799 sq. ft. $417
2017-06-09 Condo 7738 Kilmarnok Dr San Jose, CA 95135 $619,000 1,490 sq. ft. 436 sq. ft. $415
2017-06-08 Condo 4580 Waterville Dr San Jose, CA 95118 $540,000 987 sq. ft. $547
2017-06-08 Condo Contemporary 5637 Calmor Ave 3 San Jose, CA 95123 $390,000 903 sq. ft. 8,259 sq. ft. $432
2017-06-08 Condo 1192 Brightside Ct San Jose, CA 95127 $439,000 1,000 sq. ft. 1,716 sq. ft. $439
2017-06-08 Condo 490 Owlswood Way San Jose, CA 95111 $485,000 1,197 sq. ft. 1,459 sq. ft. $405
2017-06-08 Condo 1521 Fledermaus Ct San Jose, CA 95121 $509,000 1,474 sq. ft. 1,011 sq. ft. $345
2017-06-08 Condo 1823 Ashmeade Ct San Jose, CA 95125 $749,000 1,071 sq. ft. 1,498 sq. ft. $699
2017-06-08 Condo 1961 Foxhall Loop San Jose, CA 95125 $819,888 1,529 sq. ft. 1,307 sq. ft. $536
2017-06-08 Condo 1961 Foxhall Loop San Jose, CA 95125 $819,888 1,529 sq. ft. 1,498 sq. ft. $536
2017-06-08 Condo 461 Northlake Dr 20 San Jose, CA 95117 $848,888 1,626 sq. ft. 810 sq. ft. $522
2017-06-08 Condo 3265 Heather Ridge Ct San Jose, CA 95136 $579,000 1,067 sq. ft. 1,067 sq. ft. $543
2017-06-08 Condo 3819 Seven Trees Blvd 302 San Jose, CA 95111 $425,000 999 sq. ft. $425
2017-06-07 Condo 2377 Lava Drive San Jose, CA 95133 $688,000 1,596 sq. ft. 1,742 sq. ft. $431
2017-06-07 Condo 107 Bob Hansen Court San Jose, CA 95116 $500,000 1,249 sq. ft. 1,307 sq. ft. $400
2017-06-07 Condo 112 Bob Hansen Court San Jose, CA 95116 $540,000 1,495 sq. ft. 1,307 sq. ft. $361
2017-06-07 Condo 107 Bob Hansen Ct San Jose, CA 95116 $500,000 1,249 sq. ft. 1,424 sq. ft. $400
2017-06-07 Condo 112 Bob Hansen Ct San Jose, CA 95116 $540,000 1,495 sq. ft. 1,424 sq. ft. $361
2017-06-07 Condo 6322 Whaley Dr San Jose, CA 95135 $589,000 1,102 sq. ft. 2,431 sq. ft. $534
2017-06-07 Condo 2377 Lava Dr San Jose, CA 95133 $688,000 1,596 sq. ft. 1,542 sq. ft. $431
2017-06-07 Condo Contemporary 5043 Le Miccine Terrace San Jose, CA 95129 $1,058,000 1,366 sq. ft. 871 sq. ft. $775
2017-06-07 Condo Contemporary 5043 Le Miccine Ter San Jose, CA 95129 $999,800 1,366 sq. ft. 1,002 sq. ft. $732
2017-06-07 Condo 562 N 7th St San Jose, CA 95112 $739,000 1,280 sq. ft. 545 sq. ft. $577
2017-06-07 Condo 1169 Foxchase Dr San Jose, CA 95123 $530,000 1,150 sq. ft. 436 sq. ft. $461
2017-06-06 Condo 38 N Almaden Blvd 2015 San Jose, CA 95110 $1,050,000 1,306 sq. ft. 166 sq. ft. $804
2017-06-06 Condo 801 S Winchester Blvd 1108 San Jose, CA 95128 $699,000 986 sq. ft. 893 sq. ft. $709
2017-06-06 Condo 801 Winchester Boulevard San Jose, CA 95128 $679,000 986 sq. ft. 871 sq. ft. $689
2017-06-06 Condo Contemporary 1637 Marconi Way San Jose, CA 95125 $974,988 2,010 sq. ft. 2,226 sq. ft. $485
2017-06-06 Condo 368 Tower Hill Ave San Jose, CA 95136 $699,000 1,487 sq. ft. 1,080 sq. ft. $470
2017-06-06 Condo Contemporary 1479 Bullion Court San Jose, CA 95120 $1,250,000 2,454 sq. ft. 2,614 sq. ft. $509
2017-06-06 Condo Contemporary 1479 Bullion Ct San Jose, CA 95120 $1,250,000 2,454 sq. ft. 2,762 sq. ft. $509
2017-06-05 Condo 88 Bush St 2203 San Jose, CA 95126 $849,000 1,444 sq. ft. 897 sq. ft. $588
2017-06-05 Condo Contemporary 6224 Gerdts Drive San Jose, CA 95135 $749,000 1,704 sq. ft. 2,614 sq. ft. $440
2017-06-05 Condo Contemporary 6224 Gerdts Dr San Jose, CA 95135 $809,000 1,704 sq. ft. 2,831 sq. ft. $475
2017-06-05 Condo Contemporary 297 Tradewinds Dr 202 San Jose, CA 95123 $564,961 1,466 sq. ft. 436 sq. ft. $385
2017-06-05 Condo 1485 De Rose Way 220 San Jose, CA 95126 $599,000 1,224 sq. ft. 1,224 sq. ft. $489
2017-06-05 Condo 7724 Kilmarnok Drive San Jose, CA 95135 $615,000 1,490 sq. ft. 436 sq. ft. $413
2017-06-05 Condo 7724 Kilmarnok Dr San Jose, CA 95135 $615,000 1,490 sq. ft. 436 sq. ft. $413
2017-06-03 Condo 1550 Technology Drive San Jose, CA 95110 $488,000 875 sq. ft. 871 sq. ft. $558
2017-06-03 Condo 6226 Gerdts Dr San Jose, CA 95135 $849,900 1,704 sq. ft. 2,788 sq. ft. $499
2017-06-03 Condo 1060 S 3rd St 104 San Jose, CA 95112 $399,000 667 sq. ft. 741 sq. ft. $598
2017-06-03 Condo 1098 Indian Summer Ct San Jose, CA 95122 $475,000 1,052 sq. ft. 523 sq. ft. $452
2017-06-03 Condo 1583 Delante Ter San Jose, CA 95118 $679,000 1,013 sq. ft. 828 sq. ft. $670
2017-06-03 Condo 5536 Cribari Cir San Jose, CA 95135 $410,000 1,240 sq. ft. 1,655 sq. ft. $331
2017-06-03 Condo 1550 Technology Dr 2120 San Jose, CA 95110 $475,000 831 sq. ft. 828 sq. ft. $572
2017-06-03 Condo 223 Rosarno Ct San Jose, CA 95111 $674,950 1,450 sq. ft. 1,133 sq. ft. $465
2017-06-03 Condo Traditional 7658 Falkirk Dr San Jose, CA 95135 $728,888 1,509 sq. ft. 1,917 sq. ft. $483
2017-06-02 Condo Traditional 7658 Falkirk Drive San Jose, CA 95135 $712,000 1,509 sq. ft. 1,742 sq. ft. $472
2017-06-01 Condo 1136 Holly Oak Cir San Jose, CA 95120 $779,000 1,299 sq. ft. 2,962 sq. ft. $600
2017-06-01 Condo 1322 Joplin Dr 4 San Jose, CA 95118 $438,888 798 sq. ft. 8,059 sq. ft. $550
2017-06-01 Condo 2011 Quadros Ln San Jose, CA 95131 $610,000 994 sq. ft. 1,960 sq. ft. $614
2017-06-01 Condo 19 N Willard Ave San Jose, CA 95126 $888,000 1,616 sq. ft. 1,437 sq. ft. $550
2017-06-01 Condo 482 Marble Arch Ave San Jose, CA 95136 $700,000 1,983 sq. ft. 2,004 sq. ft. $353
2017-06-01 Condo 387 Lewis Rd San Jose, CA 95111 $499,000 1,144 sq. ft. 3,180 sq. ft. $436
2017-05-31 Condo 5866 Smoky Quartz Loop San Jose, CA 95123 $789,888 1,712 sq. ft. 1,350 sq. ft. $461
2017-05-31 Condo 2560 Baton Rouge Dr San Jose, CA 95133 $699,888 1,504 sq. ft. 1,176 sq. ft. $465
2017-05-31 Condo Contemporary 259 N Capitol Ave 166 San Jose, CA 95127 $385,000 828 sq. ft. $465
2017-05-31 Condo 133 Monte Verano Court San Jose, CA 95116 $359,000 877 sq. ft. 1,742 sq. ft. $409
2017-05-31 Condo 133 Monte Verano Ct San Jose, CA 95116 $359,000 877 sq. ft. 1,830 sq. ft. $409
2017-05-31 Condo 1583 Sandra Kay Ct San Jose, CA 95126 $649,000 1,068 sq. ft. 2,614 sq. ft. $608
2017-05-31 Condo Contemporary 350 N 2nd St 142 San Jose, CA 95112 $579,000 1,238 sq. ft. 1,220 sq. ft. $468
2017-05-30 Condo 531 Giuffrida Ave G San Jose, CA 95123 $525,000 1,333 sq. ft. 2,962 sq. ft. $394
2017-05-30 Condo 4807 Capay Dr 1 San Jose, CA 95118 $438,888 810 sq. ft. 7,187 sq. ft. $542
2017-05-27 Condo 1292 Bouret Dr 4 San Jose, CA 95118 $429,950 798 sq. ft. 7,100 sq. ft. $539
2017-05-26 Condo 333 Blossom Hill Rd 2 San Jose, CA 95123 $389,000 903 sq. ft. 76,230,000 sq. ft. $431
2017-05-26 Condo 1670 Los Suenos Ave San Jose, CA 95116 $535,000 1,254 sq. ft. 2,222 sq. ft. $427
2017-05-26 Condo Contemporary 3319 Swancreek Ct San Jose, CA 95121 $545,888 1,234 sq. ft. 1,350 sq. ft. $442
2017-05-26 Condo 1118 Chicory Ct San Jose, CA 95120 $750,000 1,124 sq. ft. 2,265 sq. ft. $667
2017-05-26 Condo Contemporary; Modern / High Tech 333 Santana Row 220 San Jose, CA 95128 $1,098,890 1,405 sq. ft. 436 sq. ft. $782
2017-05-26 Condo Traditional 7388 Via Laguna San Jose, CA 95135 $819,500 1,837 sq. ft. 436 sq. ft. $446
2017-05-25 Condo 88 N Jackson Ave 128 San Jose, CA 95116 $525,900 1,200 sq. ft. 1,220 sq. ft. $438
2017-05-24 Condo Contemporary 1055 N Capitol Ave 21 San Jose, CA 95133 $380,000 632 sq. ft. 784 sq. ft. $601
2017-05-22 Condo Contemporary 130 E San Fernando St 412 San Jose, CA 95112 $719,888 1,622 sq. ft. 566 sq. ft. $444
2017-05-20 Condo 6509 Crenshaw Ct San Jose, CA 95120 $790,000 1,628 sq. ft. 1,786 sq. ft. $485
2017-05-19 Condo 1060 S 3rd St 170 San Jose, CA 95112 $548,000 1,100 sq. ft. 741 sq. ft. $498
2017-05-19 Condo 6978 Silver Fox Dr San Jose, CA 95120 $959,000 1,739 sq. ft. 1,220 sq. ft. $551
2017-05-19 Condo Contemporary 1657 Cedarcreek Ct San Jose, CA 95121 $590,000 1,508 sq. ft. 1,394 sq. ft. $391
2017-05-19 Condo 3321 Skyward Place San Jose, CA 95136 $635,000 1,285 sq. ft. 871 sq. ft. $494
2017-05-19 Condo 3321 Skyward Pl San Jose, CA 95136 $635,000 1,285 sq. ft. 1,045 sq. ft. $494
2017-05-19 Condo Contemporary; Modern / High Tech 88 E San Fernando St 910 San Jose, CA 95113 $599,000 889 sq. ft. 261 sq. ft. $674
2017-05-18 Condo 3141 Shofner Pl San Jose, CA 95111 $450,000 1,322 sq. ft. 2,004 sq. ft. $340
2017-05-18 Condo 593 Carpentier Way San Jose, CA 95111 $465,000 1,322 sq. ft. 610 sq. ft. $352
2017-05-18 Condo 144 S 3rd St 424 San Jose, CA 95112 $670,000 1,421 sq. ft. 1,525 sq. ft. $472
2017-05-18 Condo Contemporary 2125 Oakland Rd San Jose, CA 95131 $728,000 1,213 sq. ft. 2,265 sq. ft. $600
2017-05-18 Condo 1817 Queen Victoria Way San Jose, CA 95132 $599,000 1,176 sq. ft. 871 sq. ft. $509
2017-05-18 Condo Contemporary 1894 Shilling Ct San Jose, CA 95132 $700,000 1,474 sq. ft. 1,002 sq. ft. $475
2017-05-17 Condo 5937 Fiddletown Place San Jose, CA 95120 $1,150,000 2,454 sq. ft. 2,614 sq. ft. $469
2017-05-17 Condo Contemporary; Mediterranean 3051 San Jose Vineyard Place San Jose, CA 95136 $943,682 1,995 sq. ft. $473
2017-05-17 Condo 1176 Bird Ave San Jose, CA 95125 $735,000 1,244 sq. ft. 915 sq. ft. $591
2017-05-16 Condo Mediterranean 346 Adeline Ave 212 San Jose, CA 95136 $799,000 1,721 sq. ft. 828 sq. ft. $464
2017-05-16 Condo 1336 Meadow Ridge Cir San Jose, CA 95131 $599,000 896 sq. ft. 1,045 sq. ft. $669
2017-05-16 Condo 5937 Fiddletown Pl San Jose, CA 95120 $1,150,000 2,454 sq. ft. 2,831 sq. ft. $469
2017-05-16 Condo 259 N Capitol Ave 215 San Jose, CA 95127 $299,980 777 sq. ft. 1,742 sq. ft. $386
2017-05-16 Condo 2318 Lincoln Ave San Jose, CA 95125 $849,888 1,684 sq. ft. 2,047 sq. ft. $505
2017-05-15 Condo 7140 Clarendon St San Jose, CA 95129 $1,248,890 1,448 sq. ft. 741 sq. ft. $862
2017-05-13 Condo Mediterranean 3093 Lina Ln 5 San Jose, CA 95136 $765,255 1,668 sq. ft. $459
2017-05-13 Condo 393 Tower Hill Ave San Jose, CA 95136 $899,000 2,356 sq. ft. 1,176 sq. ft. $382
2017-05-13 Condo 4563 Huntington Lane San Jose, CA 95136 $741,990 1,373 sq. ft. 1,307 sq. ft. $540
2017-05-12 Condo 333 Santana Row San Jose, CA 95128 $1,398,000 1,881 sq. ft. 436 sq. ft. $743
2017-05-12 Condo Modern / High Tech 333 Santana Row 226 San Jose, CA 95128 $1,588,000 1,881 sq. ft. 436 sq. ft. $844
2017-05-12 Condo 243 Vista Roma Way San Jose, CA 95136 $799,000 1,878 sq. ft. 3,049 sq. ft. $425
2017-05-11 Condo Contemporary; Modern / High Tech 450 E Mission St 4 San Jose, CA 95112 $700,000 1,241 sq. ft. 1,699 sq. ft. $564
2017-05-11 Condo Contemporary 606 Almaden Walk Loop San Jose, CA 95125 $658,000 1,327 sq. ft. 14,680 sq. ft. $496
2017-05-09 Condo Contemporary 2109 Sunstruck Ct San Jose, CA 95125 $635,000 1,144 sq. ft. 1,568 sq. ft. $555
2017-05-09 Condo 5623 Playa Del Rey Ct 3 San Jose, CA 95123 $409,966 903 sq. ft. 10,367 sq. ft. $454
2017-05-09 Condo Contemporary 5516 Sean Cir 43 San Jose, CA 95123 $435,000 997 sq. ft. 3,615 sq. ft. $436
2017-05-08 Condo 3052 San Jose Vineyard Place San Jose, CA 95136 $911,835 1,995 sq. ft. $457
2017-05-08 Condo Lina San Jose, CA 95136 $742,128 1,658 sq. ft. $448
2017-05-06 Condo 404 Tortola Way San Jose, CA 95133 $469,000 1,067 sq. ft. 784 sq. ft. $440